Time;durP1;ratioP1;P1;durP2;ratioP2;P2;SDS_P1;SDS_P2;PMS_P1;PMS_P2;Temp;Humidity;BMP_temperature;BMP_pressure;BME280_temperature;BME280_humidity;BME280_pressure;Samples;Min_cycle;Max_cycle;Signal;HPM_P1;HPM_P2
2022/06/22 00:01:49;;;;;;;1.27;1.15;;;18.20;97.90;;;;;;5077636;28;20235;-52
2022/06/22 00:04:19;;;;;;;2.47;1.13;;;18.20;98.00;;;;;;5078392;28;20211;-50
2022/06/22 00:06:53;;;;;;;2.20;1.30;;;18.20;98.10;;;;;;5078515;28;20276;-53
2022/06/22 00:09:26;;;;;;;1.00;1.00;;;18.20;98.00;;;;;;5083678;28;20200;-56
2022/06/22 00:11:53;;;;;;;2.47;1.00;;;18.20;98.00;;;;;;5072200;28;20193;-51
2022/06/22 00:14:27;;;;;;;1.17;1.08;;;18.20;98.10;;;;;;5072219;28;20218;-54
2022/06/22 00:16:57;;;;;;;1.00;1.00;;;18.20;98.10;;;;;;5063246;28;20274;-51
2022/06/22 00:19:29;;;;;;;1.15;1.00;;;18.20;98.10;;;;;;5071218;28;20239;-54
2022/06/22 00:21:57;;;;;;;0.90;0.90;;;18.20;98.20;;;;;;5074961;28;20197;-49
2022/06/22 00:24:45;;;;;;;1.70;1.42;;;18.20;98.20;;;;;;5082990;28;20607;-53
2022/06/22 00:27:20;;;;;;;1.95;1.80;;;18.20;98.20;;;;;;5067309;28;20274;-53
2022/06/22 00:30:01;;;;;;;1.05;1.05;;;18.10;98.20;;;;;;5071849;28;20196;-56
2022/06/22 00:32:30;;;;;;;1.02;1.02;;;18.10;98.20;;;;;;5065515;28;20207;-55
2022/06/22 00:34:57;;;;;;;2.05;1.25;;;18.20;98.30;;;;;;5080043;28;20197;-52
2022/06/22 00:37:32;;;;;;;1.33;1.23;;;18.10;98.30;;;;;;5082223;28;20204;-53
2022/06/22 00:40:01;;;;;;;1.48;0.95;;;18.10;98.40;;;;;;5077290;28;20192;-55
2022/06/22 00:42:38;;;;;;;1.00;1.00;;;18.10;98.40;;;;;;5075826;28;20645;-54
2022/06/22 00:45:08;;;;;;;0.95;0.95;;;18.10;98.50;;;;;;5080175;28;20270;-55
2022/06/22 00:47:43;;;;;;;1.35;1.10;;;18.10;98.50;;;;;;5081959;28;20737;-53
2022/06/22 00:50:16;;;;;;;1.15;1.15;;;18.10;98.50;;;;;;5087815;28;20249;-57
2022/06/22 00:52:47;;;;;;;2.58;1.38;;;18.10;98.60;;;;;;5082054;28;20303;-55
2022/06/22 00:55:24;;;;;;;1.00;1.00;;;18.10;98.60;;;;;;5066719;28;20228;-53
2022/06/22 00:57:59;;;;;;;1.23;1.10;;;18.10;98.60;;;;;;5077565;28;20242;-55
2022/06/22 01:00:31;;;;;;;2.10;1.30;;;18.10;98.70;;;;;;5069142;28;20210;-55
2022/06/22 01:03:05;;;;;;;0.93;0.90;;;18.00;98.70;;;;;;5080992;28;20207;-54
2022/06/22 01:05:37;;;;;;;0.70;0.70;;;18.10;98.70;;;;;;5059360;28;20200;-54
2022/06/22 01:08:12;;;;;;;0.95;0.95;;;18.10;98.80;;;;;;5085961;28;20282;-55
2022/06/22 01:10:44;;;;;;;1.33;1.10;;;18.10;98.80;;;;;;5080832;28;20227;-48
2022/06/22 01:13:17;;;;;;;2.05;1.38;;;18.10;98.80;;;;;;5077367;28;20193;-52
2022/06/22 01:15:49;;;;;;;1.00;1.00;;;18.10;98.80;;;;;;5061613;28;20257;-52
2022/06/22 01:18:24;;;;;;;1.83;1.10;;;18.10;98.90;;;;;;5060719;28;20205;-54
2022/06/22 01:20:57;;;;;;;1.00;1.00;;;18.10;98.90;;;;;;5080087;28;20266;-52
2022/06/22 01:23:47;;;;;;;0.95;0.95;;;18.10;98.90;;;;;;5070880;28;20631;-49
2022/06/22 01:26:28;;;;;;;0.85;0.85;;;18.10;99.00;;;;;;5068881;28;20193;-53
2022/06/22 01:29:00;;;;;;;1.17;1.02;;;18.00;99.00;;;;;;5075331;28;20768;-53
2022/06/22 01:31:29;;;;;;;0.95;0.90;;;18.00;99.00;;;;;;5069999;28;20254;-54
2022/06/22 01:33:56;;;;;;;0.88;0.88;;;18.10;99.10;;;;;;5071559;28;20203;-51
2022/06/22 01:36:26;;;;;;;2.20;1.08;;;18.00;99.10;;;;;;5054266;28;20326;-55
2022/06/22 01:38:54;;;;;;;1.10;1.00;;;18.00;99.10;;;;;;5073702;28;20203;-56
2022/06/22 01:41:32;;;;;;;3.15;1.10;;;18.00;99.20;;;;;;5085403;28;20211;-55
2022/06/22 01:44:07;;;;;;;1.02;1.02;;;18.00;99.30;;;;;;5078125;28;20195;-52
2022/06/22 01:47:08;;;;;;;0.90;0.90;;;18.00;99.30;;;;;;5061348;28;20199;-52
2022/06/22 01:49:42;;;;;;;1.67;1.00;;;18.00;99.40;;;;;;5079285;28;20197;-49
2022/06/22 01:52:14;;;;;;;1.00;1.00;;;17.90;99.40;;;;;;5076837;28;20274;-49
2022/06/22 01:54:48;;;;;;;3.00;1.13;;;17.90;99.50;;;;;;5053745;28;20201;-53
2022/06/22 01:57:19;;;;;;;1.05;0.98;;;17.90;99.50;;;;;;5077983;28;20215;-53
2022/06/22 01:59:52;;;;;;;1.00;1.00;;;18.00;99.60;;;;;;5056069;28;20698;-49
2022/06/22 02:02:22;;;;;;;0.80;0.80;;;18.00;99.70;;;;;;5071977;28;20216;-49
2022/06/22 02:04:56;;;;;;;1.02;1.00;;;17.90;99.70;;;;;;5073351;28;20630;-47
2022/06/22 02:07:45;;;;;;;0.70;0.70;;;18.00;99.70;;;;;;5079400;28;20247;-47
2022/06/22 02:10:39;;;;;;;0.70;0.70;;;18.00;99.80;;;;;;5072342;28;20204;-55
2022/06/22 02:13:22;;;;;;;0.88;0.88;;;18.00;99.80;;;;;;5074528;28;20194;-54
2022/06/22 02:15:57;;;;;;;0.70;0.70;;;17.90;99.80;;;;;;5072045;28;20594;-56
2022/06/22 02:18:30;;;;;;;0.70;0.70;;;17.90;99.80;;;;;;5080190;28;20229;-54
2022/06/22 02:21:00;;;;;;;0.75;0.75;;;17.90;99.90;;;;;;5076239;28;20193;-52
2022/06/22 02:23:29;;;;;;;0.70;0.70;;;17.90;99.90;;;;;;5084168;28;20656;-54
2022/06/22 02:26:12;;;;;;;6.15;0.80;;;17.90;99.90;;;;;;5070717;28;20220;-55
2022/06/22 02:28:41;;;;;;;0.70;0.70;;;17.90;99.90;;;;;;5078401;28;20184;-55
2022/06/22 02:31:10;;;;;;;0.90;0.90;;;17.90;99.90;;;;;;5070851;28;20197;-55
2022/06/22 02:33:40;;;;;;;0.60;0.60;;;17.90;99.90;;;;;;5057660;28;20258;-52
2022/06/22 02:36:08;;;;;;;0.80;0.80;;;17.80;99.90;;;;;;5075282;28;20312;-54
2022/06/22 02:38:36;;;;;;;0.60;0.60;;;17.90;99.90;;;;;;5078686;28;20727;-55
2022/06/22 02:46:38;;;;;;;0.98;0.98;;;17.90;99.90;;;;;;5072348;28;20185;-55
2022/06/22 02:49:11;;;;;;;0.80;0.80;;;17.80;99.90;;;;;;5071434;28;20261;-54
2022/06/22 02:51:43;;;;;;;2.45;0.75;;;17.80;99.90;;;;;;5078566;28;20197;-48
2022/06/22 02:54:21;;;;;;;0.65;0.65;;;17.90;99.90;;;;;;5076132;28;20593;-53
2022/06/22 02:57:05;;;;;;;0.60;0.60;;;17.90;99.90;;;;;;5078204;28;20209;-53
2022/06/22 02:59:34;;;;;;;0.70;0.70;;;17.90;99.90;;;;;;5086077;28;20200;-54
2022/06/22 03:02:03;;;;;;;0.82;0.82;;;17.90;99.90;;;;;;5074558;28;20246;-53
2022/06/22 03:04:31;;;;;;;1.15;0.68;;;17.90;99.90;;;;;;5076259;28;20221;-53
2022/06/22 03:06:58;;;;;;;0.73;0.73;;;17.90;99.90;;;;;;5071281;28;20242;-56
2022/06/22 03:09:28;;;;;;;0.68;0.68;;;17.90;99.90;;;;;;5051781;28;20208;-53
2022/06/22 03:11:59;;;;;;;0.88;0.77;;;17.90;99.90;;;;;;5081978;28;20188;-51
2022/06/22 03:14:31;;;;;;;0.63;0.63;;;17.90;99.90;;;;;;5084646;28;20201;-54
2022/06/22 03:17:00;;;;;;;0.60;0.60;;;17.90;99.90;;;;;;5084261;28;20208;-53
2022/06/22 03:19:36;;;;;;;0.65;0.63;;;17.90;99.90;;;;;;5083878;28;20236;-55
2022/06/22 03:22:03;;;;;;;0.50;0.50;;;17.90;99.90;;;;;;5064873;28;20204;-53
2022/06/22 03:24:38;;;;;;;0.70;0.70;;;17.90;99.90;;;;;;5085207;28;20220;-54
2022/06/22 03:27:14;;;;;;;0.60;0.60;;;17.90;99.90;;;;;;5075031;28;20275;-55
2022/06/22 03:29:46;;;;;;;0.80;0.80;;;17.90;99.90;;;;;;5081801;28;20274;-55
2022/06/22 03:32:20;;;;;;;0.70;0.70;;;17.90;99.90;;;;;;5061249;28;20548;-55
2022/06/22 03:34:54;;;;;;;0.68;0.68;;;17.90;99.90;;;;;;5076844;28;20193;-53
2022/06/22 03:37:27;;;;;;;0.75;0.70;;;17.90;99.90;;;;;;5084038;28;20220;-55
2022/06/22 03:39:58;;;;;;;0.65;0.65;;;17.90;99.90;;;;;;5088521;28;20197;-53
2022/06/22 03:42:29;;;;;;;0.80;0.80;;;17.90;99.90;;;;;;5084940;28;20226;-54
2022/06/22 03:45:01;;;;;;;0.90;0.90;;;17.90;99.90;;;;;;5080967;28;20193;-53
2022/06/22 03:47:35;;;;;;;0.90;0.90;;;17.90;99.90;;;;;;5059463;28;20205;-55
2022/06/22 03:50:10;;;;;;;0.95;0.80;;;17.90;99.90;;;;;;5075548;28;20633;-53
2022/06/22 03:52:42;;;;;;;1.00;1.00;;;18.00;99.90;;;;;;5074476;28;20196;-51
2022/06/22 03:55:14;;;;;;;1.42;0.90;;;17.90;99.90;;;;;;5056046;28;20232;-48
2022/06/22 03:57:44;;;;;;;0.80;0.80;;;17.90;99.90;;;;;;5061956;28;20239;-54
2022/06/22 04:00:14;;;;;;;0.80;0.80;;;17.90;99.90;;;;;;5075020;28;20201;-53
2022/06/22 04:02:42;;;;;;;0.90;0.80;;;18.00;99.90;;;;;;5080067;28;20197;-52
2022/06/22 04:05:17;;;;;;;0.88;0.88;;;18.00;99.90;;;;;;5083210;28;20576;-53
2022/06/22 04:07:44;;;;;;;0.70;0.70;;;18.00;99.90;;;;;;5081528;28;20754;-55
2022/06/22 04:10:34;;;;;;;0.80;0.80;;;18.00;99.90;;;;;;5079154;28;20201;-53
2022/06/22 04:13:04;;;;;;;0.80;0.80;;;18.10;99.90;;;;;;5066651;28;20236;-54
2022/06/22 04:15:36;;;;;;;1.00;1.00;;;18.10;99.90;;;;;;5072148;28;20243;-53
2022/06/22 04:18:09;;;;;;;1.15;0.93;;;18.10;99.90;;;;;;5055453;28;20877;-54
2022/06/22 04:20:51;;;;;;;0.90;0.90;;;18.10;99.90;;;;;;5082694;28;20601;-54
2022/06/22 04:23:24;;;;;;;1.40;0.88;;;18.10;99.90;;;;;;5088437;28;20257;-54
2022/06/22 04:25:53;;;;;;;1.00;1.00;;;18.20;99.90;;;;;;5077777;28;20597;-56
2022/06/22 04:28:21;;;;;;;0.80;0.80;;;18.20;99.90;;;;;;5080159;28;20193;-57
2022/06/22 04:30:51;;;;;;;1.58;0.90;;;18.20;99.90;;;;;;5075325;28;20240;-56
2022/06/22 04:33:23;;;;;;;1.25;1.15;;;18.30;99.90;;;;;;5074930;28;20287;-49
2022/06/22 04:36:00;;;;;;;1.00;1.00;;;18.30;99.90;;;;;;5072711;28;20193;-54
2022/06/22 04:38:36;;;;;;;1.20;1.20;;;18.30;99.90;;;;;;5073667;28;20232;-54
2022/06/22 04:41:22;;;;;;;1.13;1.00;;;18.40;99.90;;;;;;5082633;28;20198;-48
2022/06/22 04:43:50;;;;;;;0.90;0.90;;;18.40;99.90;;;;;;5061084;28;20258;-54
2022/06/22 04:46:23;;;;;;;2.33;1.00;;;18.40;99.90;;;;;;5077891;28;20223;-53
2022/06/22 04:48:53;;;;;;;1.73;1.05;;;18.50;99.90;;;;;;5082612;28;20554;-53
2022/06/22 04:51:24;;;;;;;6.78;1.35;;;18.50;99.90;;;;;;5077181;28;20549;-55
2022/06/22 04:53:55;;;;;;;2.28;1.10;;;18.50;99.90;;;;;;5081655;28;20221;-53
2022/06/22 04:56:29;;;;;;;1.20;1.20;;;18.60;99.90;;;;;;5075911;28;20236;-56
2022/06/22 04:58:57;;;;;;;1.10;0.98;;;18.60;99.90;;;;;;5080398;28;20196;-51
2022/06/22 05:01:27;;;;;;;0.88;0.88;;;18.60;99.90;;;;;;5081116;28;20193;-55
2022/06/22 05:03:58;;;;;;;1.08;1.08;;;18.70;99.90;;;;;;5083617;28;20203;-55
2022/06/22 05:06:34;;;;;;;0.95;0.95;;;18.70;99.90;;;;;;5058966;28;20258;-56
2022/06/22 05:09:11;;;;;;;1.10;1.10;;;18.70;99.90;;;;;;5057219;28;20215;-56
2022/06/22 05:11:42;;;;;;;1.20;1.10;;;18.80;99.90;;;;;;5072646;28;20282;-56
2022/06/22 05:14:16;;;;;;;1.00;1.00;;;18.80;99.90;;;;;;5088404;28;20228;-53
2022/06/22 05:16:53;;;;;;;1.00;1.00;;;18.80;99.90;;;;;;5081613;28;20261;-56
2022/06/22 05:19:25;;;;;;;0.90;0.90;;;18.80;99.90;;;;;;5079160;28;20252;-57
2022/06/22 05:21:53;;;;;;;1.00;1.00;;;18.90;99.90;;;;;;5073767;28;20550;-55
2022/06/22 05:24:24;;;;;;;0.90;0.90;;;18.90;99.90;;;;;;5055973;28;20189;-57
2022/06/22 05:26:53;;;;;;;0.82;0.82;;;18.90;99.90;;;;;;5069976;28;20192;-55
2022/06/22 05:29:27;;;;;;;0.88;0.88;;;19.00;99.90;;;;;;5077239;28;20683;-50
2022/06/22 05:32:00;;;;;;;0.93;0.90;;;19.00;99.90;;;;;;5074101;28;20227;-53
2022/06/22 05:34:32;;;;;;;1.02;0.90;;;19.00;99.90;;;;;;5072750;28;20227;-54
2022/06/22 05:37:04;;;;;;;0.50;0.50;;;19.00;99.90;;;;;;5074980;28;20310;-52
2022/06/22 05:39:33;;;;;;;0.75;0.75;;;19.10;99.90;;;;;;5077686;28;20648;-55
2022/06/22 05:42:02;;;;;;;0.80;0.80;;;19.10;99.90;;;;;;5074889;28;20278;-54
2022/06/22 05:44:30;;;;;;;2.03;1.08;;;19.20;99.90;;;;;;5072367;28;20619;-51
2022/06/22 05:46:59;;;;;;;1.40;1.13;;;19.20;99.90;;;;;;5076277;28;20201;-54
2022/06/22 05:49:30;;;;;;;0.77;0.77;;;19.20;99.90;;;;;;5075342;28;20285;-54
2022/06/22 05:52:05;;;;;;;0.75;0.75;;;19.20;99.90;;;;;;5079476;28;20192;-55
2022/06/22 05:54:40;;;;;;;1.65;0.80;;;19.20;99.90;;;;;;5070241;28;20199;-53
2022/06/22 05:57:16;;;;;;;0.73;0.73;;;19.20;99.90;;;;;;5076182;28;20614;-53
2022/06/22 05:59:47;;;;;;;0.65;0.65;;;19.20;99.90;;;;;;5079807;28;20571;-56
2022/06/22 06:02:22;;;;;;;0.60;0.60;;;19.30;99.90;;;;;;5071210;28;20642;-52
2022/06/22 06:04:56;;;;;;;2.00;0.90;;;19.30;99.80;;;;;;5075154;28;20193;-51
2022/06/22 06:07:32;;;;;;;0.93;0.93;;;19.30;99.70;;;;;;5071017;28;20194;-52
2022/06/22 06:10:00;;;;;;;1.13;0.98;;;19.30;99.60;;;;;;5073641;28;20200;-50
2022/06/22 06:12:34;;;;;;;1.08;0.80;;;19.30;99.50;;;;;;5076644;28;20249;-52
2022/06/22 06:15:04;;;;;;;0.93;0.90;;;19.40;99.60;;;;;;5075397;28;20599;-55
2022/06/22 06:17:36;;;;;;;0.90;0.90;;;19.40;99.60;;;;;;5075913;28;20292;-54
2022/06/22 06:20:06;;;;;;;0.80;0.80;;;19.40;99.60;;;;;;5071844;28;20315;-50
2022/06/22 06:22:36;;;;;;;0.60;0.60;;;19.50;99.50;;;;;;5071028;28;20225;-55
2022/06/22 06:27:57;;;;;;;0.70;0.70;;;19.60;99.30;;;;;;5075523;28;20373;-53
2022/06/22 06:30:31;;;;;;;0.85;0.85;;;19.60;99.20;;;;;;5074458;28;20675;-53
2022/06/22 06:33:05;;;;;;;0.77;0.77;;;19.60;99.10;;;;;;5077610;28;20255;-50
2022/06/22 06:35:36;;;;;;;0.70;0.70;;;19.70;99.10;;;;;;5074465;28;20200;-54
2022/06/22 06:38:16;;;;;;;0.60;0.60;;;19.70;99.10;;;;;;5074489;28;20278;-53
2022/06/22 06:40:47;;;;;;;0.80;0.80;;;19.70;99.00;;;;;;5081312;28;20200;-52
2022/06/22 06:43:31;;;;;;;1.00;1.00;;;19.80;98.90;;;;;;5070649;28;20212;-53
2022/06/22 06:46:01;;;;;;;0.70;0.70;;;19.80;98.80;;;;;;5060420;28;20200;-54
2022/06/22 06:48:31;;;;;;;0.70;0.70;;;19.80;98.70;;;;;;5078727;28;20695;-52
2022/06/22 06:51:02;;;;;;;0.80;0.80;;;19.90;98.70;;;;;;5076037;28;20200;-52
2022/06/22 06:53:39;;;;;;;0.75;0.75;;;19.90;98.60;;;;;;5079339;28;20205;-54
2022/06/22 06:56:13;;;;;;;1.10;0.95;;;20.00;98.50;;;;;;5072071;28;20192;-54
2022/06/22 06:58:43;;;;;;;0.82;0.82;;;20.10;98.40;;;;;;5071246;28;20286;-49
2022/06/22 07:01:18;;;;;;;0.80;0.80;;;20.10;98.20;;;;;;5069180;28;20201;-51
2022/06/22 07:03:46;;;;;;;1.50;0.90;;;20.20;98.20;;;;;;5070007;28;20193;-55
2022/06/22 07:06:13;;;;;;;0.80;0.80;;;20.20;98.00;;;;;;5071120;28;20205;-51
2022/06/22 07:08:47;;;;;;;0.82;0.82;;;20.30;98.00;;;;;;5085111;28;20228;-52
2022/06/22 07:11:19;;;;;;;1.38;0.85;;;20.30;97.90;;;;;;5088027;28;20200;-55
2022/06/22 07:13:51;;;;;;;0.82;0.82;;;20.30;97.70;;;;;;5089628;28;20188;-56
2022/06/22 07:16:24;;;;;;;1.02;0.85;;;20.30;97.50;;;;;;5085423;28;20656;-52
2022/06/22 07:18:56;;;;;;;0.93;0.93;;;20.30;97.50;;;;;;5077607;28;20263;-56
2022/06/22 07:21:32;;;;;;;0.90;0.90;;;20.30;97.30;;;;;;5079642;28;20193;-55
2022/06/22 07:24:06;;;;;;;0.85;0.73;;;20.30;97.20;;;;;;5082112;28;20266;-55
2022/06/22 07:26:42;;;;;;;0.95;0.95;;;20.30;97.10;;;;;;5071497;28;20199;-55
2022/06/22 07:29:17;;;;;;;0.80;0.73;;;20.30;97.00;;;;;;5083016;28;20230;-52
2022/06/22 07:31:50;;;;;;;0.80;0.80;;;20.30;97.00;;;;;;5080855;28;20271;-48
2022/06/22 07:34:20;;;;;;;0.82;0.82;;;20.40;97.00;;;;;;5077071;28;20227;-54
2022/06/22 07:36:52;;;;;;;0.73;0.73;;;20.40;97.00;;;;;;5073929;28;20190;-52
2022/06/22 07:39:32;;;;;;;0.90;0.90;;;20.40;97.00;;;;;;5085047;28;20639;-52
2022/06/22 07:42:02;;;;;;;0.95;0.95;;;20.50;97.30;;;;;;5063567;28;20211;-53
2022/06/22 07:44:33;;;;;;;0.93;0.80;;;20.50;96.80;;;;;;5075300;28;20630;-55
2022/06/22 07:47:08;;;;;;;0.90;0.90;;;20.60;96.70;;;;;;5077845;28;20197;-57
2022/06/22 07:49:40;;;;;;;1.02;0.80;;;20.70;96.60;;;;;;5079433;28;20189;-55
2022/06/22 07:52:11;;;;;;;0.80;0.80;;;20.80;96.50;;;;;;5058658;28;20234;-55
2022/06/22 07:54:45;;;;;;;1.58;0.90;;;20.90;96.50;;;;;;5078485;28;20201;-52
2022/06/22 07:57:18;;;;;;;0.75;0.75;;;21.00;96.40;;;;;;5075207;28;20200;-54
2022/06/22 07:59:49;;;;;;;1.25;1.13;;;21.10;96.30;;;;;;5084121;28;20196;-55
2022/06/22 08:02:18;;;;;;;0.80;0.80;;;21.20;96.30;;;;;;5071307;28;20189;-54
2022/06/22 08:04:52;;;;;;;0.93;0.93;;;21.20;96.20;;;;;;5080862;28;20285;-55
2022/06/22 08:07:24;;;;;;;0.90;0.90;;;21.20;96.10;;;;;;5077238;28;20231;-54
2022/06/22 08:10:03;;;;;;;1.02;1.00;;;21.20;96.00;;;;;;5080969;28;20657;-51
2022/06/22 08:12:35;;;;;;;0.70;0.70;;;21.10;95.90;;;;;;5076782;28;20219;-53
2022/06/22 08:15:07;;;;;;;0.85;0.85;;;21.20;95.90;;;;;;5080757;28;20648;-54
2022/06/22 08:17:41;;;;;;;2.05;0.90;;;21.20;95.90;;;;;;5080734;28;20677;-54
2022/06/22 08:20:11;;;;;;;1.13;1.13;;;21.30;95.80;;;;;;5079736;28;20232;-54
2022/06/22 08:22:39;;;;;;;1.45;1.33;;;21.30;95.70;;;;;;5079717;28;20197;-55
2022/06/22 08:25:08;;;;;;;3.45;1.25;;;21.30;95.50;;;;;;5077685;28;20210;-56
2022/06/22 08:27:37;;;;;;;1.92;1.00;;;21.30;95.50;;;;;;5085079;28;20196;-54
2022/06/22 08:30:05;;;;;;;1.10;1.10;;;21.30;95.40;;;;;;5077070;28;20188;-54
2022/06/22 08:32:34;;;;;;;1.15;1.10;;;21.20;95.30;;;;;;5064638;28;20257;-53
2022/06/22 08:35:08;;;;;;;0.98;0.98;;;21.20;95.30;;;;;;5076168;28;20561;-54
2022/06/22 08:37:40;;;;;;;1.00;1.00;;;21.30;95.40;;;;;;5077423;28;20212;-51
2022/06/22 08:40:17;;;;;;;0.80;0.80;;;21.30;95.20;;;;;;5075680;28;20219;-56
2022/06/22 08:42:54;;;;;;;0.98;0.82;;;21.40;95.00;;;;;;5065098;28;20207;-55
2022/06/22 08:46:00;;;;;;;1.27;1.00;;;21.50;94.90;;;;;;5074845;28;20209;-52
2022/06/22 08:48:58;;;;;;;0.82;0.82;;;21.60;94.60;;;;;;5039164;28;20209;-53
2022/06/22 08:51:44;;;;;;;1.25;1.20;;;21.60;94.40;;;;;;5075260;28;20235;-51
2022/06/22 08:54:28;;;;;;;0.82;0.82;;;21.60;94.20;;;;;;5072800;28;20189;-50
2022/06/22 08:57:04;;;;;;;1.13;1.00;;;21.60;94.20;;;;;;5069760;28;20201;-53
2022/06/22 08:59:47;;;;;;;1.10;0.98;;;21.70;94.20;;;;;;5080653;28;20705;-51
2022/06/22 09:02:31;;;;;;;0.90;0.90;;;21.80;94.10;;;;;;5071851;28;20197;-52
2022/06/22 09:05:19;;;;;;;1.45;1.15;;;21.80;94.00;;;;;;5058512;28;20227;-53
2022/06/22 09:08:19;;;;;;;1.15;1.10;;;21.70;93.90;;;;;;5073301;28;21028;-54
2022/06/22 09:11:00;;;;;;;0.90;0.90;;;21.70;93.90;;;;;;5078842;28;20199;-50
2022/06/22 09:13:50;;;;;;;0.95;0.90;;;21.70;94.20;;;;;;5075162;28;20191;-54
2022/06/22 09:16:34;;;;;;;1.05;1.00;;;21.80;93.90;;;;;;5073554;28;20232;-54
2022/06/22 09:19:17;;;;;;;0.90;0.90;;;21.90;93.90;;;;;;5073856;28;20232;-53
2022/06/22 09:21:59;;;;;;;1.63;0.90;;;22.00;93.90;;;;;;5074498;28;20217;-48
2022/06/22 09:24:39;;;;;;;0.70;0.70;;;22.00;93.80;;;;;;5073690;28;20197;-54
2022/06/22 09:27:15;;;;;;;0.85;0.85;;;22.10;93.80;;;;;;5075487;28;20246;-53
2022/06/22 09:30:06;;;;;;;0.80;0.80;;;22.10;93.70;;;;;;5078277;28;20180;-47
2022/06/22 09:32:56;;;;;;;1.63;0.80;;;22.10;93.70;;;;;;5075735;28;20263;-52
2022/06/22 09:35:42;;;;;;;0.70;0.70;;;22.20;93.70;;;;;;5072771;28;20195;-52
2022/06/22 09:38:43;;;;;;;3.22;0.93;;;22.20;93.60;;;;;;5070919;28;20795;-55
2022/06/22 09:41:20;;;;;;;0.60;0.60;;;22.20;93.60;;;;;;5079795;28;20281;-53
2022/06/22 09:44:14;;;;;;;0.70;0.70;;;22.30;93.60;;;;;;5077065;28;20188;-51
2022/06/22 09:47:23;;;;;;;0.68;0.68;;;22.20;93.30;;;;;;5072067;28;20292;-52
2022/06/22 09:50:22;;;;;;;0.90;0.90;;;22.30;93.10;;;;;;5073896;28;20261;-56
2022/06/22 09:53:10;;;;;;;1.10;1.00;;;22.30;92.90;;;;;;5061410;28;20220;-55
2022/06/22 09:59:13;;;;;;;0.80;0.80;;;22.30;92.50;;;;;;5081986;28;20769;-55
2022/06/22 10:01:49;;;;;;;1.00;1.00;;;22.40;92.30;;;;;;5056750;28;20246;-54
2022/06/22 10:05:00;;;;;;;1.60;1.50;;;22.50;92.10;;;;;;5072209;28;20607;-55
2022/06/22 10:07:42;;;;;;;3.38;1.90;;;22.60;91.90;;;;;;5074890;28;20193;-55
2022/06/22 10:10:24;;;;;;;2.38;1.92;;;22.70;92.00;;;;;;5073469;28;20201;-54
2022/06/22 10:13:14;;;;;;;1.88;1.65;;;22.70;92.40;;;;;;5071228;28;20203;-56
2022/06/22 10:15:56;;;;;;;1.38;1.17;;;22.70;92.70;;;;;;5072372;28;20197;-54
2022/06/22 10:18:42;;;;;;;1.10;1.10;;;22.70;92.90;;;;;;5074150;28;20248;-54
2022/06/22 10:21:20;;;;;;;0.93;0.80;;;22.60;93.00;;;;;;5075441;28;20612;-51
2022/06/22 10:24:16;;;;;;;0.90;0.90;;;22.60;93.20;;;;;;5060213;28;20545;-55
2022/06/22 10:26:55;;;;;;;1.20;1.10;;;22.60;93.20;;;;;;5079257;28;20196;-53
2022/06/22 10:29:57;;;;;;;0.95;0.95;;;22.60;93.20;;;;;;5073563;28;20199;-55
2022/06/22 10:32:40;;;;;;;1.10;1.00;;;22.60;93.20;;;;;;5074750;28;20666;-56
2022/06/22 10:35:21;;;;;;;1.35;1.20;;;22.60;93.30;;;;;;5079252;28;20275;-53
2022/06/22 10:38:07;;;;;;;1.30;1.20;;;22.60;93.40;;;;;;5073134;28;20262;-55
2022/06/22 10:46:36;;;;;;;1.67;1.58;;;22.70;93.40;;;;;;5072826;28;21177;-52
2022/06/22 10:49:27;;;;;;;4.88;1.60;;;22.70;93.20;;;;;;5067093;28;20195;-56
2022/06/22 10:52:15;;;;;;;3.08;1.60;;;22.80;93.10;;;;;;5074836;28;20649;-55
2022/06/22 10:55:00;;;;;;;3.17;1.60;;;22.80;93.20;;;;;;5071548;28;20193;-51
2022/06/22 10:57:51;;;;;;;1.30;1.20;;;22.90;93.20;;;;;;5071529;28;20275;-53
2022/06/22 11:00:22;;;;;;;1.02;1.00;;;22.90;93.10;;;;;;5074976;28;20719;-50
2022/06/22 11:03:43;;;;;;;0.90;0.90;;;22.90;93.10;;;;;;5080456;28;20189;-50
2022/06/22 11:06:51;;;;;;;0.90;0.90;;;22.90;93.10;;;;;;5070645;28;20193;-50
2022/06/22 11:09:45;;;;;;;2.30;1.17;;;22.90;93.00;;;;;;5016934;28;20659;-53
2022/06/22 11:12:51;;;;;;;1.10;1.10;;;22.90;92.90;;;;;;5061172;28;20249;-50
2022/06/22 11:15:52;;;;;;;3.58;1.30;;;23.00;92.90;;;;;;5044559;28;20286;-52
2022/06/22 11:18:40;;;;;;;1.25;1.15;;;23.10;92.80;;;;;;5076829;28;20677;-53
2022/06/22 11:21:21;;;;;;;1.35;1.25;;;23.10;92.70;;;;;;5070254;28;20195;-54
2022/06/22 11:24:19;;;;;;;0.85;0.85;;;23.10;92.60;;;;;;5070375;28;20569;-54
2022/06/22 11:33:07;;;;;;;1.30;1.20;;;23.00;92.40;;;;;;5075944;28;20193;-54
2022/06/22 11:35:53;;;;;;;2.17;1.02;;;23.10;92.00;;;;;;5071981;28;20308;-54
2022/06/22 11:38:59;;;;;;;0.90;0.90;;;23.20;92.00;;;;;;5073961;28;20259;-50
2022/06/22 11:42:07;;;;;;;1.33;0.98;;;23.20;91.80;;;;;;5079403;28;20192;-56
2022/06/22 11:47:49;;;;;;;4.00;1.30;;;23.10;91.40;;;;;;5079701;28;20193;-53
2022/06/22 11:50:26;;;;;;;1.30;1.02;;;23.10;91.20;;;;;;5078125;28;20274;-53
2022/06/22 11:53:10;;;;;;;0.98;0.90;;;23.10;91.10;;;;;;5055916;28;20201;-52
2022/06/22 11:55:41;;;;;;;1.10;1.00;;;23.20;91.00;;;;;;5071296;28;20267;-54
2022/06/22 11:58:40;;;;;;;1.00;1.00;;;23.20;90.90;;;;;;5062760;28;20200;-54
2022/06/22 12:01:32;;;;;;;1.25;1.15;;;23.30;90.80;;;;;;5063277;28;20626;-55
2022/06/22 12:04:41;;;;;;;0.95;0.90;;;23.30;90.70;;;;;;5087305;28;20232;-55
2022/06/22 12:07:34;;;;;;;0.95;0.90;;;23.40;90.60;;;;;;5085891;28;20212;-54
2022/06/22 12:10:18;;;;;;;2.05;1.20;;;23.40;90.40;;;;;;5083717;28;20196;-55
2022/06/22 12:12:58;;;;;;;0.95;0.90;;;23.50;90.20;;;;;;5080416;28;20196;-55
2022/06/22 12:15:49;;;;;;;1.17;1.08;;;23.50;90.00;;;;;;5070710;28;20208;-54
2022/06/22 12:18:41;;;;;;;1.10;1.10;;;23.50;90.00;;;;;;5076465;28;20192;-55
2022/06/22 12:21:35;;;;;;;1.00;1.00;;;23.60;89.90;;;;;;5070379;28;20201;-54
2022/06/22 12:24:10;;;;;;;1.30;1.30;;;23.60;90.10;;;;;;5079857;28;20255;-54
2022/06/22 12:26:47;;;;;;;1.02;1.02;;;23.60;90.20;;;;;;5070887;28;20200;-55
2022/06/22 12:29:41;;;;;;;1.02;1.02;;;23.60;90.20;;;;;;5070819;28;20189;-53
2022/06/22 12:32:17;;;;;;;0.82;0.82;;;23.60;90.30;;;;;;5080987;28;20580;-51
2022/06/22 12:34:50;;;;;;;1.10;1.08;;;23.60;90.50;;;;;;5081785;28;20308;-52
2022/06/22 12:37:22;;;;;;;1.10;1.10;;;23.60;90.60;;;;;;5076047;28;20197;-55
2022/06/22 12:39:55;;;;;;;2.05;1.20;;;23.60;90.50;;;;;;5076568;28;20205;-50
2022/06/22 12:42:38;;;;;;;1.30;1.20;;;23.60;90.50;;;;;;5081587;28;20196;-53
2022/06/22 12:45:27;;;;;;;1.30;1.20;;;23.60;90.40;;;;;;5077932;28;20244;-54
2022/06/22 12:48:20;;;;;;;1.50;1.02;;;23.70;90.40;;;;;;5084702;28;20258;-55
2022/06/22 12:51:05;;;;;;;1.15;0.98;;;23.60;90.30;;;;;;5075079;28;20648;-54
2022/06/22 12:53:36;;;;;;;0.98;0.90;;;23.70;90.10;;;;;;5075378;28;20227;-50
2022/06/22 12:56:10;;;;;;;0.90;0.90;;;23.70;90.00;;;;;;5073998;28;20204;-53
2022/06/22 12:58:44;;;;;;;1.23;1.00;;;23.70;90.00;;;;;;5074854;28;20189;-54
2022/06/22 13:01:12;;;;;;;1.55;0.95;;;23.70;89.60;;;;;;5076131;28;20188;-53
2022/06/22 13:03:43;;;;;;;0.93;0.93;;;23.70;89.20;;;;;;5059802;28;20325;-53
2022/06/22 13:06:10;;;;;;;0.80;0.80;;;23.80;89.10;;;;;;5077659;28;20530;-55
2022/06/22 13:08:39;;;;;;;1.48;0.90;;;23.80;89.00;;;;;;5080431;28;20192;-54
2022/06/22 13:11:13;;;;;;;1.00;1.00;;;23.80;88.70;;;;;;5073665;28;20726;-55
2022/06/22 13:13:48;;;;;;;1.52;1.38;;;23.80;88.50;;;;;;5070124;28;20227;-55
2022/06/22 13:16:22;;;;;;;1.75;1.13;;;23.80;87.90;;;;;;5064996;28;20310;-49
2022/06/22 13:18:55;;;;;;;2.88;1.30;;;23.80;88.30;;;;;;5075934;28;20229;-55
2022/06/22 13:21:30;;;;;;;1.45;1.30;;;23.80;87.30;;;;;;5053657;28;20212;-51
2022/06/22 13:24:07;;;;;;;1.38;0.93;;;23.80;87.30;;;;;;5070846;28;20551;-53
2022/06/22 13:26:48;;;;;;;0.90;0.90;;;23.80;87.20;;;;;;5071679;28;20193;-56
2022/06/22 13:29:24;;;;;;;1.52;1.35;;;23.80;87.10;;;;;;5074043;28;20234;-53
2022/06/22 13:31:55;;;;;;;3.53;1.10;;;23.90;86.90;;;;;;5072964;28;20200;-50
2022/06/22 13:34:27;;;;;;;1.95;1.10;;;23.80;86.30;;;;;;5080502;28;20193;-54
2022/06/22 13:37:05;;;;;;;6.20;4.75;;;23.80;86.20;;;;;;5069963;28;20307;-54
2022/06/22 13:39:52;;;;;;;3.60;3.13;;;23.80;86.00;;;;;;5072126;28;20635;-55
2022/06/22 13:42:57;;;;;;;2.30;2.20;;;23.80;85.60;;;;;;5084680;28;20226;-55
2022/06/22 13:45:42;;;;;;;1.75;1.60;;;23.80;85.70;;;;;;5073601;28;20211;-54
2022/06/22 13:48:28;;;;;;;2.17;1.23;;;23.80;85.60;;;;;;5080166;28;20226;-54
2022/06/22 13:51:21;;;;;;;1.27;1.15;;;23.80;85.60;;;;;;5080298;28;20220;-54
2022/06/22 13:54:26;;;;;;;1.33;1.15;;;23.80;85.60;;;;;;5081750;28;20617;-55
2022/06/22 13:57:02;;;;;;;1.15;1.15;;;23.80;85.50;;;;;;5060126;28;20694;-54
2022/06/22 13:59:39;;;;;;;0.93;0.93;;;23.80;85.40;;;;;;5078364;28;20213;-52
2022/06/22 14:02:21;;;;;;;1.17;1.08;;;23.80;85.50;;;;;;5072823;28;20189;-53
2022/06/22 14:04:54;;;;;;;1.25;1.00;;;23.80;85.30;;;;;;5062890;28;20204;-55
2022/06/22 14:07:27;;;;;;;1.40;1.30;;;23.80;84.90;;;;;;5081283;28;20204;-54